createdAt,value
2022-10-15T00:01:32.102Z,99.90
2022-10-15T00:06:33.668Z,99.90
2022-10-15T00:09:00.686Z,99.90
2022-10-15T00:11:29.486Z,99.90
2022-10-15T00:14:00.021Z,99.90
2022-10-15T00:16:29.578Z,99.90
2022-10-15T00:18:59.396Z,99.90
2022-10-15T00:21:26.898Z,99.90
2022-10-15T00:23:53.829Z,99.90
2022-10-15T00:26:28.566Z,99.90
2022-10-15T00:29:01.172Z,99.90
2022-10-15T00:31:31.881Z,99.90
2022-10-15T00:34:02.501Z,99.90
2022-10-15T00:36:36.140Z,99.90
2022-10-15T00:39:06.573Z,99.90
2022-10-15T00:41:41.875Z,99.90
2022-10-15T00:44:28.973Z,99.90
2022-10-15T00:47:16.318Z,99.90
2022-10-15T00:50:12.551Z,99.90
2022-10-15T00:53:13.646Z,99.90
2022-10-15T00:55:43.686Z,99.90
2022-10-15T00:58:21.969Z,99.90
2022-10-15T01:00:49.032Z,99.90
2022-10-15T01:03:16.455Z,99.90
2022-10-15T01:05:49.022Z,99.90
2022-10-15T01:08:15.962Z,99.90
2022-10-15T01:11:33.503Z,99.90
2022-10-15T01:14:39.199Z,99.90
2022-10-15T01:17:42.082Z,99.90
2022-10-15T01:20:45.886Z,99.90
2022-10-15T01:24:16.578Z,99.90
2022-10-15T01:27:33.146Z,99.90
2022-10-15T01:30:23.330Z,99.90
2022-10-15T01:33:28.470Z,99.90
2022-10-15T01:36:20.783Z,99.90
2022-10-15T01:39:31.823Z,99.90
2022-10-15T01:42:34.754Z,99.90
2022-10-15T01:45:16.155Z,99.90
2022-10-15T01:47:57.506Z,99.90
2022-10-15T01:50:32.290Z,99.90
2022-10-15T01:53:04.119Z,99.90
2022-10-15T01:55:34.414Z,99.90
2022-10-15T01:58:04.696Z,99.90
2022-10-15T02:00:31.591Z,99.90
2022-10-15T02:03:02.603Z,99.90
2022-10-15T02:05:55.051Z,99.90
2022-10-15T02:09:08.723Z,99.90
2022-10-15T02:11:57.856Z,99.90
2022-10-15T02:14:59.894Z,99.90
2022-10-15T02:18:09.419Z,99.90
2022-10-15T02:20:58.391Z,99.90
2022-10-15T02:24:03.937Z,99.90
2022-10-15T02:26:32.523Z,99.90
2022-10-15T02:29:02.861Z,99.90
2022-10-15T02:31:36.532Z,99.90
2022-10-15T02:34:11.245Z,99.90
2022-10-15T02:36:42.695Z,99.90
2022-10-15T02:39:24.208Z,99.90
2022-10-15T02:41:53.671Z,99.90
2022-10-15T02:44:21.436Z,99.90
2022-10-15T02:46:48.551Z,99.90
2022-10-15T02:49:16.251Z,99.90
2022-10-15T02:51:43.169Z,99.90
2022-10-15T02:54:10.031Z,99.90
2022-10-15T02:56:39.104Z,99.90
2022-10-15T02:59:06.987Z,99.90
2022-10-15T03:01:34.866Z,99.90
2022-10-15T03:04:02.853Z,99.90
2022-10-15T03:06:29.804Z,99.90
2022-10-15T03:08:56.800Z,99.90
2022-10-15T03:11:23.672Z,99.90
2022-10-15T03:13:50.625Z,99.90
2022-10-15T03:16:17.704Z,99.90
2022-10-15T03:18:44.571Z,99.90
2022-10-15T03:21:11.624Z,99.90
2022-10-15T03:23:38.868Z,99.90
2022-10-15T03:26:06.176Z,99.90
2022-10-15T03:28:33.219Z,99.90
2022-10-15T03:31:00.140Z,99.90
2022-10-15T03:33:27.172Z,99.90
2022-10-15T03:35:54.060Z,99.90
2022-10-15T03:38:21.090Z,99.90
2022-10-15T03:40:47.960Z,99.90
2022-10-15T03:43:14.909Z,99.90
2022-10-15T03:45:41.777Z,99.90
2022-10-15T03:48:08.748Z,99.90
2022-10-15T03:50:35.662Z,99.90
2022-10-15T03:53:06.046Z,99.90
2022-10-15T03:55:33.451Z,99.90
2022-10-15T03:58:00.513Z,99.90
2022-10-15T04:00:28.324Z,99.90
2022-10-15T04:02:55.704Z,99.90
2022-10-15T04:05:22.619Z,99.90
2022-10-15T04:07:49.587Z,99.90
2022-10-15T04:10:16.565Z,99.90
2022-10-15T04:12:43.439Z,99.90
2022-10-15T04:15:10.587Z,99.90
2022-10-15T04:17:37.445Z,99.90
2022-10-15T04:20:05.022Z,99.90
2022-10-15T04:22:31.924Z,99.90
2022-10-15T04:24:58.988Z,99.90
2022-10-15T04:27:26.102Z,99.90
2022-10-15T04:29:52.980Z,99.90
2022-10-15T04:32:19.831Z,99.90
2022-10-15T04:34:49.893Z,99.90
2022-10-15T04:37:16.806Z,99.90
2022-10-15T04:39:43.643Z,99.90
2022-10-15T04:42:10.470Z,99.90
2022-10-15T04:44:37.338Z,99.90
2022-10-15T04:47:04.275Z,99.90
2022-10-15T04:49:31.298Z,99.90
2022-10-15T04:51:58.518Z,99.90
2022-10-15T04:54:25.398Z,99.90
2022-10-15T04:56:52.214Z,99.90
2022-10-15T04:59:19.139Z,99.90
2022-10-15T05:01:46.012Z,99.90
2022-10-15T05:04:13.643Z,99.90
2022-10-15T05:06:40.651Z,99.90
2022-10-15T05:09:07.576Z,99.90
2022-10-15T05:11:38.102Z,99.90
2022-10-15T05:14:05.875Z,99.90
2022-10-15T05:16:34.071Z,99.90
2022-10-15T05:19:08.056Z,99.90
2022-10-15T05:21:37.116Z,99.90
2022-10-15T05:24:05.248Z,99.90
2022-10-15T05:26:32.759Z,99.90
2022-10-15T05:29:01.035Z,99.90
2022-10-15T05:31:33.035Z,99.90
2022-10-15T05:33:59.931Z,99.90
2022-10-15T05:36:29.859Z,99.90
2022-10-15T05:39:02.797Z,99.90
2022-10-15T05:41:30.712Z,99.90
2022-10-15T05:43:59.220Z,99.90
2022-10-15T05:46:26.620Z,99.90
2022-10-15T05:48:57.387Z,99.90
2022-10-15T05:51:27.526Z,99.90
2022-10-15T05:53:57.548Z,99.90
2022-10-15T05:56:26.160Z,99.90
2022-10-15T05:58:53.660Z,99.90
2022-10-15T06:01:20.653Z,99.90
2022-10-15T06:03:47.984Z,99.90
2022-10-15T06:06:26.891Z,99.90
2022-10-15T06:08:55.265Z,99.90
2022-10-15T06:11:22.700Z,99.90
2022-10-15T06:13:49.696Z,99.90
2022-10-15T06:16:21.132Z,99.90
2022-10-15T06:18:53.365Z,99.90
2022-10-15T06:21:20.418Z,99.90
2022-10-15T06:23:47.282Z,99.90
2022-10-15T06:26:14.167Z,99.90
2022-10-15T06:28:41.156Z,99.90
2022-10-15T06:31:08.757Z,99.90
2022-10-15T06:33:36.376Z,99.90
2022-10-15T06:36:11.070Z,99.90
2022-10-15T06:38:39.281Z,99.90
2022-10-15T06:41:09.849Z,99.90
2022-10-15T06:43:36.690Z,99.90
2022-10-15T06:46:06.373Z,99.90
2022-10-15T06:48:34.619Z,99.90
2022-10-15T06:51:03.060Z,99.90
2022-10-15T06:53:31.312Z,99.90
2022-10-15T06:56:04.141Z,99.90
2022-10-15T06:58:31.199Z,99.90
2022-10-15T07:01:06.471Z,99.90
2022-10-15T07:03:33.455Z,99.90
2022-10-15T07:06:09.511Z,99.90
2022-10-15T07:08:37.144Z,99.90
2022-10-15T07:11:09.141Z,99.90
2022-10-15T07:13:36.409Z,99.90
2022-10-15T07:16:13.101Z,99.90
2022-10-15T07:18:40.520Z,99.90
2022-10-15T07:23:37.750Z,99.90
2022-10-15T07:26:05.389Z,99.90
2022-10-15T07:28:32.520Z,99.90
2022-10-15T07:31:06.041Z,99.90
2022-10-15T07:33:37.104Z,99.90
2022-10-15T07:36:09.189Z,99.90
2022-10-15T07:38:36.757Z,99.90
2022-10-15T07:41:05.610Z,99.90
2022-10-15T07:43:37.226Z,99.90
2022-10-15T07:46:05.864Z,99.90
2022-10-15T07:48:33.011Z,99.90
2022-10-15T07:51:05.471Z,99.90
2022-10-15T07:53:33.298Z,99.90
2022-10-15T07:56:11.906Z,99.90
2022-10-15T07:58:39.575Z,99.90
2022-10-15T08:04:02.071Z,99.90
2022-10-15T08:06:28.897Z,99.90
2022-10-15T08:08:55.842Z,99.90
2022-10-15T08:11:22.678Z,99.90
2022-10-15T08:13:49.591Z,99.90
2022-10-15T08:16:19.446Z,99.90
2022-10-15T08:18:46.717Z,99.90
2022-10-15T08:21:13.713Z,99.90
2022-10-15T08:23:40.721Z,99.90
2022-10-15T08:26:07.751Z,99.90
2022-10-15T08:28:36.255Z,99.90
2022-10-15T08:31:05.953Z,99.90
2022-10-15T08:33:36.213Z,99.90
2022-10-15T08:36:06.672Z,99.90
2022-10-15T08:38:35.395Z,99.90
2022-10-15T08:41:19.765Z,99.90
2022-10-15T08:43:48.347Z,99.90
2022-10-15T08:46:41.595Z,99.90
2022-10-15T08:49:50.815Z,99.90
2022-10-15T08:52:43.825Z,99.90
2022-10-15T08:55:20.822Z,99.90
2022-10-15T08:58:03.323Z,99.90
2022-10-15T09:00:58.432Z,99.90
2022-10-15T09:04:16.561Z,99.90
2022-10-15T09:06:44.404Z,99.90
2022-10-15T09:09:45.612Z,99.90
2022-10-15T09:12:50.500Z,99.90
2022-10-15T09:15:25.489Z,99.90
2022-10-15T09:17:55.630Z,99.90
2022-10-15T09:20:35.416Z,99.90
2022-10-15T09:23:03.260Z,99.90
2022-10-15T09:25:40.736Z,99.90
2022-10-15T09:28:17.418Z,99.90
2022-10-15T09:30:57.661Z,99.90
2022-10-15T09:33:49.696Z,99.90
2022-10-15T09:36:43.440Z,99.90
2022-10-15T09:39:58.510Z,99.90
2022-10-15T09:42:49.725Z,99.90
2022-10-15T09:45:23.944Z,99.90
2022-10-15T09:47:52.776Z,99.90
2022-10-15T09:50:19.736Z,99.90
2022-10-15T09:53:24.612Z,99.90
2022-10-15T09:56:22.627Z,99.90
2022-10-15T09:58:57.458Z,99.90
2022-10-15T10:01:29.185Z,99.90
2022-10-15T10:04:18.161Z,99.90
2022-10-15T10:06:54.553Z,99.90
2022-10-15T10:09:36.155Z,99.90
2022-10-15T10:12:17.609Z,99.90
2022-10-15T10:14:59.598Z,99.90
2022-10-15T10:17:32.059Z,99.90
2022-10-15T10:20:23.405Z,99.90
2022-10-15T10:23:04.993Z,99.90
2022-10-15T10:25:42.433Z,99.90
2022-10-15T10:28:09.444Z,99.90
2022-10-15T10:30:48.894Z,99.90
2022-10-15T10:33:35.393Z,99.90
2022-10-15T10:36:05.288Z,99.90
2022-10-15T10:38:37.862Z,99.90
2022-10-15T10:41:12.410Z,99.90
2022-10-15T10:43:54.097Z,99.90
2022-10-15T10:46:24.388Z,99.90
2022-10-15T10:48:54.035Z,99.90
2022-10-15T10:51:28.022Z,99.90
2022-10-15T10:54:06.258Z,99.90
2022-10-15T10:56:43.774Z,99.90
2022-10-15T10:59:31.034Z,99.90
2022-10-15T11:01:58.210Z,99.90
2022-10-15T11:04:33.879Z,99.90
2022-10-15T11:07:21.167Z,99.90
2022-10-15T11:10:58.567Z,99.90
2022-10-15T11:14:17.478Z,99.90
2022-10-15T11:17:20.114Z,99.90
2022-10-15T11:20:46.198Z,99.90
2022-10-15T11:24:33.467Z,99.90
2022-10-15T11:27:39.992Z,99.90
2022-10-15T11:30:50.473Z,99.90
2022-10-15T11:33:42.868Z,99.90
2022-10-15T11:36:50.611Z,98.40
2022-10-15T11:39:57.551Z,97.40
2022-10-15T11:42:54.055Z,96.90
2022-10-15T11:45:50.171Z,96.70
2022-10-15T11:49:04.304Z,96.20
2022-10-15T11:52:12.763Z,96.40
2022-10-15T11:55:42.551Z,97.90
2022-10-15T11:58:40.080Z,99.00
2022-10-15T12:01:39.032Z,99.10
2022-10-15T12:04:32.670Z,98.60
2022-10-15T12:07:08.072Z,98.20
2022-10-15T12:09:43.215Z,98.50
2022-10-15T12:12:49.386Z,98.70
2022-10-15T12:15:55.504Z,99.10
2022-10-15T12:18:49.700Z,99.90
2022-10-15T12:21:44.244Z,99.90
2022-10-15T12:24:48.220Z,99.90
2022-10-15T12:27:19.224Z,99.90
2022-10-15T12:30:03.688Z,99.90
2022-10-15T12:32:48.670Z,99.90
2022-10-15T12:35:15.671Z,99.90
2022-10-15T12:37:47.927Z,99.90
2022-10-15T12:40:23.810Z,99.90
2022-10-15T12:43:15.697Z,99.90
2022-10-15T12:45:55.063Z,99.90
2022-10-15T12:48:38.348Z,99.90
2022-10-15T12:51:23.448Z,99.90
2022-10-15T12:53:58.724Z,99.90
2022-10-15T12:56:41.546Z,99.90
2022-10-15T12:59:45.882Z,99.90
2022-10-15T13:02:44.422Z,99.90
2022-10-15T13:05:34.769Z,99.90
2022-10-15T13:08:13.445Z,99.90
2022-10-15T13:11:01.841Z,99.90
2022-10-15T13:13:33.723Z,99.90
2022-10-15T13:16:08.894Z,99.90
2022-10-15T13:18:36.287Z,99.90
2022-10-15T13:21:03.293Z,99.90
2022-10-15T13:23:34.257Z,99.90
2022-10-15T13:26:27.127Z,99.90
2022-10-15T13:28:58.199Z,99.20
2022-10-15T13:31:32.086Z,97.30
2022-10-15T13:34:28.425Z,93.40
2022-10-15T13:37:01.927Z,92.10
2022-10-15T13:39:40.507Z,92.60
2022-10-15T13:42:24.470Z,94.20
2022-10-15T13:45:17.758Z,94.50
2022-10-15T13:47:52.776Z,95.30
2022-10-15T13:50:26.539Z,96.90
2022-10-15T13:53:24.982Z,96.80
2022-10-15T13:55:57.986Z,96.90
2022-10-15T13:58:35.754Z,96.50
2022-10-15T14:01:25.016Z,95.80
2022-10-15T14:03:59.425Z,94.80
2022-10-15T14:06:31.159Z,92.40
2022-10-15T14:09:26.815Z,90.60
2022-10-15T14:11:59.098Z,88.10
2022-10-15T14:14:48.046Z,82.50
2022-10-15T14:17:26.873Z,81.70
2022-10-15T14:20:25.866Z,78.10
2022-10-15T14:22:49.872Z,79.10
2022-10-15T14:25:25.847Z,78.10
2022-10-15T14:27:53.596Z,77.70
2022-10-15T14:30:39.343Z,78.30
2022-10-15T14:33:39.208Z,76.60
2022-10-15T14:36:19.384Z,76.10
2022-10-15T14:38:46.458Z,78.30
2022-10-15T14:41:33.914Z,79.60
2022-10-15T14:44:18.927Z,79.40
2022-10-15T14:47:01.429Z,79.20
2022-10-15T14:49:34.539Z,80.90
2022-10-15T14:52:17.158Z,84.60
2022-10-15T14:55:07.177Z,88.40
2022-10-15T14:57:43.131Z,90.90
2022-10-15T15:00:31.988Z,92.40
2022-10-15T15:03:04.427Z,93.80
2022-10-15T15:05:46.057Z,92.80
2022-10-15T15:08:13.932Z,91.70
2022-10-15T15:10:42.911Z,91.30
2022-10-15T15:13:23.153Z,92.00
2022-10-15T15:15:50.376Z,92.70
2022-10-15T15:18:18.883Z,93.50
2022-10-15T15:20:49.520Z,94.20
2022-10-15T15:23:23.787Z,94.90
2022-10-15T15:25:53.984Z,95.70
2022-10-15T15:28:25.770Z,96.30
2022-10-15T15:31:07.815Z,97.10
2022-10-15T15:33:35.383Z,97.70
2022-10-15T15:36:12.535Z,98.50
2022-10-15T15:38:39.537Z,99.30
2022-10-15T15:41:18.579Z,99.90
2022-10-15T15:43:46.425Z,99.90
2022-10-15T15:46:14.848Z,99.90
2022-10-15T15:48:41.701Z,99.90
2022-10-15T15:51:30.491Z,99.90
2022-10-15T15:53:58.673Z,99.90
2022-10-15T15:56:25.937Z,99.90
2022-10-15T15:58:52.991Z,99.90
2022-10-15T16:01:20.891Z,99.90
2022-10-15T16:03:47.942Z,99.90
2022-10-15T16:06:14.812Z,99.90
2022-10-15T16:08:41.820Z,99.90
2022-10-15T16:11:08.764Z,99.90
2022-10-15T16:13:35.889Z,99.90
2022-10-15T16:16:03.658Z,99.90
2022-10-15T16:18:30.616Z,99.90
2022-10-15T16:20:57.975Z,99.90
2022-10-15T16:23:24.905Z,99.90
2022-10-15T16:25:54.437Z,99.90
2022-10-15T16:28:21.358Z,99.90
2022-10-15T16:30:48.217Z,99.90
2022-10-15T16:33:15.594Z,99.90
2022-10-15T16:35:42.497Z,99.90
2022-10-15T16:38:09.409Z,99.90
2022-10-15T16:40:36.309Z,99.90
2022-10-15T16:43:03.241Z,99.90
2022-10-15T16:45:30.214Z,99.90
2022-10-15T16:47:57.156Z,99.90
2022-10-15T16:50:24.129Z,99.90
2022-10-15T16:52:50.988Z,99.90
2022-10-15T16:55:17.838Z,99.90
2022-10-15T16:57:44.682Z,99.90
2022-10-15T17:00:12.581Z,99.90
2022-10-15T17:02:39.551Z,99.90
2022-10-15T17:05:07.562Z,99.90
2022-10-15T17:07:34.405Z,99.90
2022-10-15T17:10:01.720Z,99.90
2022-10-15T17:12:28.828Z,99.90
2022-10-15T17:14:55.802Z,99.90
2022-10-15T17:17:23.106Z,99.90
2022-10-15T17:19:50.006Z,99.90
2022-10-15T17:22:16.898Z,99.90
2022-10-15T17:24:44.076Z,99.90
2022-10-15T17:27:10.981Z,99.90
2022-10-15T17:29:38.090Z,99.90
2022-10-15T17:32:05.190Z,99.90
2022-10-15T17:34:32.078Z,99.90
2022-10-15T17:36:59.076Z,99.90
2022-10-15T17:39:25.971Z,99.90
2022-10-15T17:41:52.887Z,99.90
2022-10-15T17:44:20.765Z,99.90
2022-10-15T17:49:18.607Z,99.90
2022-10-15T17:51:46.672Z,99.90
2022-10-15T17:54:13.894Z,99.90
2022-10-15T17:56:40.831Z,99.90
2022-10-15T17:59:12.270Z,99.90
2022-10-15T18:01:57.905Z,99.90
2022-10-15T18:04:30.037Z,99.90
2022-10-15T18:06:57.542Z,99.90
2022-10-15T18:09:28.270Z,99.90
2022-10-15T18:11:58.104Z,99.90
2022-10-15T18:14:25.061Z,99.90
2022-10-15T18:16:52.641Z,99.90
2022-10-15T18:19:19.607Z,99.90
2022-10-15T18:21:49.467Z,99.90
2022-10-15T18:24:21.025Z,99.90
2022-10-15T18:26:47.988Z,99.90
2022-10-15T18:29:15.309Z,99.90
2022-10-15T18:31:42.176Z,99.90
2022-10-15T18:34:09.202Z,99.90
2022-10-15T18:36:37.656Z,99.90
2022-10-15T18:39:04.607Z,99.90
2022-10-15T18:41:34.425Z,99.90
2022-10-15T18:44:07.469Z,99.90
2022-10-15T18:46:35.952Z,99.90
2022-10-15T18:49:03.540Z,99.90
2022-10-15T18:51:31.604Z,99.90
2022-10-15T18:54:00.604Z,99.90
2022-10-15T18:56:27.702Z,99.90
2022-10-15T18:58:55.044Z,99.90
2022-10-15T19:01:38.758Z,99.90
2022-10-15T19:04:14.205Z,99.90
2022-10-15T19:06:49.520Z,99.90
2022-10-15T19:09:24.465Z,99.90
2022-10-15T19:11:55.282Z,99.90
2022-10-15T19:14:27.870Z,99.90
2022-10-15T19:16:56.517Z,99.90
2022-10-15T19:19:25.917Z,99.90
2022-10-15T19:21:55.485Z,99.90
2022-10-15T19:24:24.149Z,99.90
2022-10-15T19:26:52.433Z,99.90
2022-10-15T19:29:21.493Z,99.90
2022-10-15T19:31:51.358Z,99.90
2022-10-15T19:34:18.353Z,99.90
2022-10-15T19:36:48.393Z,99.90
2022-10-15T19:39:21.372Z,99.90
2022-10-15T19:41:51.001Z,99.90
2022-10-15T19:44:24.787Z,99.90
2022-10-15T19:46:52.243Z,99.90
2022-10-15T19:49:19.669Z,99.90
2022-10-15T19:51:51.394Z,99.90
2022-10-15T19:54:18.386Z,99.90
2022-10-15T19:56:45.826Z,99.90
2022-10-15T19:59:14.116Z,99.90
2022-10-15T20:01:40.991Z,99.90
2022-10-15T20:04:08.013Z,99.90
2022-10-15T20:06:40.842Z,99.90
2022-10-15T20:09:08.904Z,99.90
2022-10-15T20:11:37.698Z,99.90
2022-10-15T20:14:04.997Z,99.90
2022-10-15T20:16:33.453Z,99.90
2022-10-15T20:19:04.242Z,99.90
2022-10-15T20:21:32.545Z,99.90
2022-10-15T20:24:03.790Z,99.90
2022-10-15T20:26:30.999Z,99.90
2022-10-15T20:28:58.006Z,99.90
2022-10-15T20:31:28.640Z,99.90
2022-10-15T20:33:55.734Z,99.90
2022-10-15T20:36:24.259Z,99.90
2022-10-15T20:38:51.921Z,99.90
2022-10-15T20:41:19.760Z,99.90
2022-10-15T20:43:55.655Z,99.90
2022-10-15T20:47:13.403Z,99.90
2022-10-15T20:49:46.659Z,99.90
2022-10-15T20:52:15.434Z,99.90
2022-10-15T20:54:42.443Z,99.90
2022-10-15T20:57:10.895Z,99.90
2022-10-15T20:59:37.800Z,99.90
2022-10-15T21:02:04.756Z,99.90
2022-10-15T21:04:31.695Z,99.90
2022-10-15T21:06:58.562Z,99.90
2022-10-15T21:09:25.484Z,99.90
2022-10-15T21:11:52.332Z,99.90
2022-10-15T21:14:19.246Z,99.90
2022-10-15T21:16:46.118Z,99.90
2022-10-15T21:19:12.990Z,99.90
2022-10-15T21:21:39.854Z,99.90
2022-10-15T21:24:07.007Z,99.90
2022-10-15T21:26:33.848Z,99.90
2022-10-15T21:29:00.949Z,99.90
2022-10-15T21:31:28.003Z,99.90
2022-10-15T21:33:55.890Z,99.90
2022-10-15T21:36:27.143Z,99.90
2022-10-15T21:39:06.511Z,99.90
2022-10-15T21:41:37.829Z,99.90
2022-10-15T21:44:07.935Z,99.90
2022-10-15T21:46:35.498Z,99.90
2022-10-15T21:49:03.827Z,99.90
2022-10-15T21:51:33.783Z,99.90
2022-10-15T21:54:04.251Z,99.90
2022-10-15T21:56:32.019Z,99.90
2022-10-15T21:58:59.415Z,99.90
2022-10-15T22:01:37.648Z,99.90
2022-10-15T22:04:09.679Z,99.90
2022-10-15T22:06:39.957Z,99.90
2022-10-15T22:09:09.384Z,99.90
2022-10-15T22:11:41.094Z,99.90
2022-10-15T22:14:13.122Z,99.90
2022-10-15T22:16:42.322Z,99.90
2022-10-15T22:19:14.453Z,99.90
2022-10-15T22:21:41.311Z,99.90
2022-10-15T22:24:19.740Z,99.90
2022-10-15T22:26:51.162Z,99.90
2022-10-15T22:29:33.076Z,99.90
2022-10-15T22:32:01.431Z,99.90
2022-10-15T22:34:28.296Z,99.90
2022-10-15T22:36:55.280Z,99.90
2022-10-15T22:39:22.341Z,99.90
2022-10-15T22:41:49.421Z,99.90
2022-10-15T22:44:20.663Z,99.90
2022-10-15T22:46:49.377Z,99.90
2022-10-15T22:49:20.980Z,99.90
2022-10-15T22:51:49.941Z,99.90
2022-10-15T22:54:20.607Z,99.90
2022-10-15T22:56:48.478Z,99.90
2022-10-15T22:59:16.164Z,99.90
2022-10-15T23:01:45.207Z,99.90
2022-10-15T23:04:16.257Z,99.90
2022-10-15T23:06:43.936Z,99.90
2022-10-15T23:09:17.272Z,99.90
2022-10-15T23:11:45.056Z,99.90
2022-10-15T23:14:15.616Z,99.90
2022-10-15T23:16:46.972Z,99.90
2022-10-15T23:19:31.853Z,99.90
2022-10-15T23:22:01.145Z,99.90
2022-10-15T23:24:28.943Z,99.90
2022-10-15T23:26:55.926Z,99.90
2022-10-15T23:29:26.593Z,99.90
2022-10-15T23:31:55.096Z,99.90
2022-10-15T23:34:25.927Z,99.90
2022-10-15T23:36:53.935Z,99.90
2022-10-15T23:39:26.889Z,99.90
2022-10-15T23:41:55.283Z,99.90
2022-10-15T23:44:25.261Z,99.90
2022-10-15T23:46:52.349Z,99.90
2022-10-15T23:49:19.337Z,99.90
2022-10-15T23:51:46.293Z,99.90
2022-10-15T23:54:18.575Z,99.90
2022-10-15T23:56:47.366Z,99.90
2022-10-15T23:59:14.707Z,99.90
